Severn, Virginia
Current Conditions -  °F | °C
As of 11:54 PM on Saturday 22 Nov 2014 (Local Time) from KPHF Reporting Station
Clear Clear  
Wind Chill: 37°   Ceiling: Unl
Heat Index: 37°   Visibility: 10mi
Dew Point: 24°   Wind: 0mph
Humidity: 59%   Direction: NA
Pressure: 30.33"   Gusts: NA
Location:  37.29°N, 76.42°W
Report Text: KPHF 230454Z 00000KT 10SM CLR 03/M04 A3033 RMK AO2 SLP269 T00281044 401171050 $
Loading
Personal Weather Stations






























Interactive Weather Map New forecast layout! Learn more

10-Day Weather Forecast

Advertisements
Track Severe Weather on mobile